CheckWX is a tool to help pilots better visualize weather data.  It is not intended as a substitute for an official pre-flight weather briefing.

12:05:13 UTC

KMGE TAF
Dobbins Air Reserve Base Airport
Marietta, Georgia, USA
TAF AMD KMGE 201000Z 2010/2111 VRB06KT 9999 BKN009 BKN250 QNH3007INS BECMG 2017/2018 19009KT 9999 VCTS BKN030CB OVC100 QNH3004INS BECMG 2022/2023 16006KT 9999 NSW FEW050 SCT250 QNH3006INS TX31/2021Z TN22/2011Z

Aug-20@
10:00 UTC

Aug-20 @ 10:00 UTC

Aug-20@
17:00 UTC

Aug-20 @ 17:00 UTC

TAF AMD KMGE 201000Z 2010/2111 VRB06KT 9999 BKN009 BKN250 QNH3007INS
Wind
  • Variable at 6 KTS
Cloud Levels
  • Broken at 900' AGL
  • Broken at 25,000' AGL

Aug-20@
17:00 UTC

Aug-20 @ 17:00 UTC

Aug-20@
22:00 UTC

Aug-20 @ 22:00 UTC

BECMG 2017/2018 19009KT 9999 VCTS BKN030CB OVC100 QNH3004INS

Becoming

Becoming Conditions expected by Tue, Aug 20, 2019 @ 18:00 UTC

Wind
  • 190° at 9 KTS
Conditions
Area Thunderstorm
Cloud Levels
  • Broken at 3,000' AGL
  • Overcast at 10,000' AGL

Aug-20@
22:00 UTC

Aug-20 @ 22:00 UTC

Aug-21@
11:00 UTC

Aug-21 @ 11:00 UTC

BECMG 2022/2023 16006KT 9999 NSW FEW050 SCT250 QNH3006INS TX31/2021Z TN22/2011Z

Becoming

Becoming Conditions expected by Tue, Aug 20, 2019 @ 23:00 UTC

Wind
  • 160° at 6 KTS
Conditions
No significant weather
Cloud Levels
  • Few at 5,000' AGL
  • Scattered at 25,000' AGL